sensor_id;sensor_type;location;lat;lon;timestamp;P1;durP1;ratioP1;P2;durP2;ratioP2
18159;SDS011;9205;52.032;4.314;2023-08-06T00:00:52;7.87;;;4.70;;
18159;SDS011;9205;52.032;4.314;2023-08-06T00:03:20;7.47;;;4.80;;
18159;SDS011;9205;52.032;4.314;2023-08-06T00:05:47;7.20;;;4.80;;
18159;SDS011;9205;52.032;4.314;2023-08-06T00:08:14;7.87;;;4.70;;
18159;SDS011;9205;52.032;4.314;2023-08-06T00:10:41;6.50;;;4.50;;
18159;SDS011;9205;52.032;4.314;2023-08-06T00:13:08;8.13;;;4.63;;
18159;SDS011;9205;52.032;4.314;2023-08-06T00:15:37;8.77;;;5.37;;
18159;SDS011;9205;52.032;4.314;2023-08-06T00:18:04;6.67;;;4.57;;
18159;SDS011;9205;52.032;4.314;2023-08-06T00:20:32;10.33;;;5.27;;
18159;SDS011;9205;52.032;4.314;2023-08-06T00:22:59;8.30;;;5.40;;
18159;SDS011;9205;52.032;4.314;2023-08-06T00:25:27;7.83;;;5.20;;
18159;SDS011;9205;52.032;4.314;2023-08-06T00:27:54;10.50;;;5.67;;
18159;SDS011;9205;52.032;4.314;2023-08-06T00:30:21;11.13;;;5.50;;
18159;SDS011;9205;52.032;4.314;2023-08-06T00:32:51;9.83;;;5.70;;
18159;SDS011;9205;52.032;4.314;2023-08-06T00:35:18;8.73;;;5.43;;
18159;SDS011;9205;52.032;4.314;2023-08-06T00:37:46;9.03;;;5.40;;
18159;SDS011;9205;52.032;4.314;2023-08-06T00:40:13;8.70;;;5.37;;
18159;SDS011;9205;52.032;4.314;2023-08-06T00:42:41;10.73;;;5.23;;
18159;SDS011;9205;52.032;4.314;2023-08-06T00:45:10;9.67;;;5.50;;
18159;SDS011;9205;52.032;4.314;2023-08-06T00:47:37;8.60;;;5.33;;
18159;SDS011;9205;52.032;4.314;2023-08-06T00:50:07;8.60;;;4.80;;
18159;SDS011;9205;52.032;4.314;2023-08-06T00:52:35;7.87;;;5.40;;
18159;SDS011;9205;52.032;4.314;2023-08-06T00:55:04;8.40;;;5.23;;
18159;SDS011;9205;52.032;4.314;2023-08-06T00:57:33;8.90;;;5.20;;
18159;SDS011;9205;52.032;4.314;2023-08-06T01:00:02;8.77;;;5.50;;
18159;SDS011;9205;52.032;4.314;2023-08-06T01:02:30;9.03;;;5.33;;
18159;SDS011;9205;52.032;4.314;2023-08-06T01:04:57;6.97;;;4.47;;
18159;SDS011;9205;52.032;4.314;2023-08-06T01:07:30;10.63;;;5.63;;
18159;SDS011;9205;52.032;4.314;2023-08-06T01:10:24;8.50;;;5.13;;
18159;SDS011;9205;52.032;4.314;2023-08-06T01:13:08;8.37;;;5.03;;
18159;SDS011;9205;52.032;4.314;2023-08-06T01:15:46;9.37;;;5.30;;
18159;SDS011;9205;52.032;4.314;2023-08-06T01:18:17;7.23;;;4.97;;
18159;SDS011;9205;52.032;4.314;2023-08-06T01:20:46;7.67;;;5.10;;
18159;SDS011;9205;52.032;4.314;2023-08-06T01:23:15;11.13;;;5.67;;
18159;SDS011;9205;52.032;4.314;2023-08-06T01:25:45;9.40;;;4.70;;
18159;SDS011;9205;52.032;4.314;2023-08-06T01:28:25;8.60;;;5.47;;
18159;SDS011;9205;52.032;4.314;2023-08-06T01:31:02;8.63;;;5.47;;
18159;SDS011;9205;52.032;4.314;2023-08-06T01:33:35;8.53;;;4.80;;
18159;SDS011;9205;52.032;4.314;2023-08-06T01:36:09;7.93;;;4.90;;
18159;SDS011;9205;52.032;4.314;2023-08-06T01:38:37;6.73;;;4.70;;
18159;SDS011;9205;52.032;4.314;2023-08-06T01:41:04;8.10;;;4.63;;
18159;SDS011;9205;52.032;4.314;2023-08-06T01:43:31;5.87;;;4.33;;
18159;SDS011;9205;52.032;4.314;2023-08-06T01:45:59;6.93;;;4.37;;
18159;SDS011;9205;52.032;4.314;2023-08-06T01:48:26;7.27;;;4.63;;
18159;SDS011;9205;52.032;4.314;2023-08-06T01:50:53;6.10;;;3.97;;
18159;SDS011;9205;52.032;4.314;2023-08-06T01:53:22;7.20;;;4.40;;
18159;SDS011;9205;52.032;4.314;2023-08-06T01:55:51;6.83;;;3.90;;
18159;SDS011;9205;52.032;4.314;2023-08-06T01:58:18;7.67;;;3.63;;
18159;SDS011;9205;52.032;4.314;2023-08-06T02:00:45;7.77;;;4.40;;
18159;SDS011;9205;52.032;4.314;2023-08-06T02:03:12;5.33;;;3.53;;
18159;SDS011;9205;52.032;4.314;2023-08-06T02:05:40;5.20;;;3.40;;
18159;SDS011;9205;52.032;4.314;2023-08-06T02:08:07;4.00;;;3.07;;
18159;SDS011;9205;52.032;4.314;2023-08-06T02:10:36;3.87;;;2.57;;
18159;SDS011;9205;52.032;4.314;2023-08-06T02:13:03;3.47;;;1.93;;
18159;SDS011;9205;52.032;4.314;2023-08-06T02:15:30;3.23;;;2.00;;
18159;SDS011;9205;52.032;4.314;2023-08-06T02:17:58;2.13;;;1.77;;
18159;SDS011;9205;52.032;4.314;2023-08-06T02:20:25;2.13;;;1.37;;
18159;SDS011;9205;52.032;4.314;2023-08-06T02:22:53;2.17;;;1.57;;
18159;SDS011;9205;52.032;4.314;2023-08-06T02:25:21;4.13;;;1.80;;
18159;SDS011;9205;52.032;4.314;2023-08-06T02:27:49;2.10;;;1.47;;
18159;SDS011;9205;52.032;4.314;2023-08-06T02:30:16;3.53;;;1.43;;
18159;SDS011;9205;52.032;4.314;2023-08-06T02:32:44;2.07;;;1.20;;
18159;SDS011;9205;52.032;4.314;2023-08-06T02:35:11;2.13;;;1.30;;
18159;SDS011;9205;52.032;4.314;2023-08-06T02:37:38;1.03;;;0.93;;
18159;SDS011;9205;52.032;4.314;2023-08-06T02:40:06;5.90;;;0.90;;
18159;SDS011;9205;52.032;4.314;2023-08-06T02:42:34;1.30;;;1.00;;
18159;SDS011;9205;52.032;4.314;2023-08-06T02:45:04;1.40;;;1.10;;
18159;SDS011;9205;52.032;4.314;2023-08-06T02:47:33;2.30;;;1.30;;
18159;SDS011;9205;52.032;4.314;2023-08-06T02:50:00;3.40;;;1.20;;
18159;SDS011;9205;52.032;4.314;2023-08-06T02:52:29;1.60;;;1.50;;
18159;SDS011;9205;52.032;4.314;2023-08-06T02:54:56;1.97;;;1.50;;
18159;SDS011;9205;52.032;4.314;2023-08-06T02:57:26;2.23;;;1.70;;
18159;SDS011;9205;52.032;4.314;2023-08-06T02:59:54;2.17;;;1.70;;
18159;SDS011;9205;52.032;4.314;2023-08-06T03:02:23;3.27;;;2.13;;
18159;SDS011;9205;52.032;4.314;2023-08-06T03:04:59;3.37;;;2.10;;
18159;SDS011;9205;52.032;4.314;2023-08-06T03:07:31;3.67;;;2.50;;
18159;SDS011;9205;52.032;4.314;2023-08-06T03:10:07;3.83;;;2.80;;
18159;SDS011;9205;52.032;4.314;2023-08-06T03:12:35;9.50;;;3.17;;
18159;SDS011;9205;52.032;4.314;2023-08-06T03:15:04;5.43;;;2.97;;
18159;SDS011;9205;52.032;4.314;2023-08-06T03:17:34;7.23;;;3.10;;
18159;SDS011;9205;52.032;4.314;2023-08-06T03:20:04;5.07;;;3.47;;
18159;SDS011;9205;52.032;4.314;2023-08-06T03:22:34;3.60;;;2.50;;
18159;SDS011;9205;52.032;4.314;2023-08-06T03:25:02;3.53;;;2.10;;
18159;SDS011;9205;52.032;4.314;2023-08-06T03:27:34;8.57;;;2.30;;
18159;SDS011;9205;52.032;4.314;2023-08-06T03:30:01;5.77;;;2.50;;
18159;SDS011;9205;52.032;4.314;2023-08-06T03:32:30;5.27;;;1.90;;
18159;SDS011;9205;52.032;4.314;2023-08-06T03:35:00;3.73;;;1.73;;
18159;SDS011;9205;52.032;4.314;2023-08-06T03:37:29;3.53;;;1.77;;
18159;SDS011;9205;52.032;4.314;2023-08-06T03:39:56;5.30;;;2.13;;
18159;SDS011;9205;52.032;4.314;2023-08-06T03:42:23;3.30;;;1.80;;
18159;SDS011;9205;52.032;4.314;2023-08-06T03:44:50;3.97;;;1.90;;
18159;SDS011;9205;52.032;4.314;2023-08-06T03:47:17;3.07;;;1.67;;
18159;SDS011;9205;52.032;4.314;2023-08-06T03:49:48;3.40;;;1.97;;
18159;SDS011;9205;52.032;4.314;2023-08-06T03:52:17;5.53;;;1.97;;
18159;SDS011;9205;52.032;4.314;2023-08-06T03:54:46;7.30;;;2.20;;
18159;SDS011;9205;52.032;4.314;2023-08-06T03:57:13;3.33;;;2.07;;
18159;SDS011;9205;52.032;4.314;2023-08-06T03:59:41;4.13;;;1.83;;
18159;SDS011;9205;52.032;4.314;2023-08-06T04:02:08;2.63;;;1.70;;
18159;SDS011;9205;52.032;4.314;2023-08-06T04:04:35;7.27;;;1.90;;
18159;SDS011;9205;52.032;4.314;2023-08-06T04:07:03;2.77;;;2.07;;
18159;SDS011;9205;52.032;4.314;2023-08-06T04:09:32;8.57;;;1.90;;
18159;SDS011;9205;52.032;4.314;2023-08-06T04:11:59;7.87;;;2.40;;
18159;SDS011;9205;52.032;4.314;2023-08-06T04:14:29;4.97;;;2.00;;
18159;SDS011;9205;52.032;4.314;2023-08-06T04:16:56;3.97;;;2.00;;
18159;SDS011;9205;52.032;4.314;2023-08-06T04:19:23;3.50;;;2.27;;
18159;SDS011;9205;52.032;4.314;2023-08-06T04:21:50;7.03;;;2.50;;
18159;SDS011;9205;52.032;4.314;2023-08-06T04:24:18;3.60;;;2.37;;
18159;SDS011;9205;52.032;4.314;2023-08-06T04:26:46;4.70;;;2.13;;
18159;SDS011;9205;52.032;4.314;2023-08-06T04:29:14;3.07;;;2.13;;
18159;SDS011;9205;52.032;4.314;2023-08-06T04:31:41;3.50;;;2.13;;
18159;SDS011;9205;52.032;4.314;2023-08-06T04:34:08;5.87;;;2.57;;
18159;SDS011;9205;52.032;4.314;2023-08-06T04:36:37;3.70;;;2.70;;
18159;SDS011;9205;52.032;4.314;2023-08-06T04:39:07;5.43;;;2.90;;
18159;SDS011;9205;52.032;4.314;2023-08-06T04:41:34;6.43;;;2.93;;
18159;SDS011;9205;52.032;4.314;2023-08-06T04:44:03;4.47;;;2.50;;
18159;SDS011;9205;52.032;4.314;2023-08-06T04:46:30;10.07;;;3.10;;
18159;SDS011;9205;52.032;4.314;2023-08-06T04:48:57;9.90;;;2.60;;
18159;SDS011;9205;52.032;4.314;2023-08-06T04:51:24;5.17;;;2.80;;
18159;SDS011;9205;52.032;4.314;2023-08-06T04:53:52;6.93;;;2.50;;
18159;SDS011;9205;52.032;4.314;2023-08-06T04:56:19;4.00;;;2.10;;
18159;SDS011;9205;52.032;4.314;2023-08-06T04:58:46;10.30;;;2.50;;
18159;SDS011;9205;52.032;4.314;2023-08-06T05:01:14;5.30;;;2.20;;
18159;SDS011;9205;52.032;4.314;2023-08-06T05:03:42;7.40;;;2.23;;
18159;SDS011;9205;52.032;4.314;2023-08-06T05:06:09;12.27;;;2.23;;
18159;SDS011;9205;52.032;4.314;2023-08-06T05:08:36;4.50;;;2.03;;
18159;SDS011;9205;52.032;4.314;2023-08-06T05:11:03;6.63;;;1.93;;
18159;SDS011;9205;52.032;4.314;2023-08-06T05:13:31;7.17;;;1.77;;
18159;SDS011;9205;52.032;4.314;2023-08-06T05:15:58;4.87;;;2.00;;
18159;SDS011;9205;52.032;4.314;2023-08-06T05:18:26;10.80;;;2.00;;
18159;SDS011;9205;52.032;4.314;2023-08-06T05:20:53;6.17;;;1.47;;
18159;SDS011;9205;52.032;4.314;2023-08-06T05:23:21;6.93;;;1.80;;
18159;SDS011;9205;52.032;4.314;2023-08-06T05:25:48;7.70;;;1.50;;
18159;SDS011;9205;52.032;4.314;2023-08-06T05:28:15;5.63;;;1.40;;
18159;SDS011;9205;52.032;4.314;2023-08-06T05:30:42;4.47;;;1.30;;
18159;SDS011;9205;52.032;4.314;2023-08-06T05:33:09;4.23;;;1.23;;
18159;SDS011;9205;52.032;4.314;2023-08-06T05:35:40;3.97;;;1.20;;
18159;SDS011;9205;52.032;4.314;2023-08-06T05:38:07;2.47;;;1.00;;
18159;SDS011;9205;52.032;4.314;2023-08-06T05:40:34;8.23;;;1.20;;
18159;SDS011;9205;52.032;4.314;2023-08-06T05:43:01;2.03;;;0.90;;
18159;SDS011;9205;52.032;4.314;2023-08-06T05:45:29;1.97;;;1.00;;
18159;SDS011;9205;52.032;4.314;2023-08-06T05:47:56;1.33;;;1.10;;
18159;SDS011;9205;52.032;4.314;2023-08-06T05:50:23;2.53;;;1.03;;
18159;SDS011;9205;52.032;4.314;2023-08-06T05:52:52;3.07;;;1.20;;
18159;SDS011;9205;52.032;4.314;2023-08-06T05:55:19;5.13;;;0.90;;
18159;SDS011;9205;52.032;4.314;2023-08-06T05:57:47;0.90;;;0.90;;
18159;SDS011;9205;52.032;4.314;2023-08-06T06:00:14;7.73;;;1.30;;
18159;SDS011;9205;52.032;4.314;2023-08-06T06:02:44;5.00;;;1.20;;
18159;SDS011;9205;52.032;4.314;2023-08-06T06:05:12;4.53;;;1.20;;
18159;SDS011;9205;52.032;4.314;2023-08-06T06:07:39;2.83;;;1.17;;
18159;SDS011;9205;52.032;4.314;2023-08-06T06:10:08;6.53;;;1.30;;
18159;SDS011;9205;52.032;4.314;2023-08-06T06:12:38;5.07;;;1.00;;
18159;SDS011;9205;52.032;4.314;2023-08-06T06:15:15;2.43;;;1.20;;
18159;SDS011;9205;52.032;4.314;2023-08-06T06:17:42;5.43;;;1.20;;
18159;SDS011;9205;52.032;4.314;2023-08-06T06:20:10;5.00;;;1.30;;
18159;SDS011;9205;52.032;4.314;2023-08-06T06:22:37;2.57;;;1.20;;
18159;SDS011;9205;52.032;4.314;2023-08-06T06:25:05;1.80;;;1.20;;
18159;SDS011;9205;52.032;4.314;2023-08-06T06:27:34;2.30;;;1.20;;
18159;SDS011;9205;52.032;4.314;2023-08-06T06:30:02;5.67;;;1.63;;
18159;SDS011;9205;52.032;4.314;2023-08-06T06:32:29;4.87;;;1.40;;
18159;SDS011;9205;52.032;4.314;2023-08-06T06:34:57;9.10;;;1.63;;
18159;SDS011;9205;52.032;4.314;2023-08-06T06:37:25;3.93;;;1.50;;
18159;SDS011;9205;52.032;4.314;2023-08-06T06:39:52;7.57;;;1.63;;
18159;SDS011;9205;52.032;4.314;2023-08-06T06:42:19;6.17;;;1.80;;
18159;SDS011;9205;52.032;4.314;2023-08-06T06:44:51;5.27;;;1.80;;
18159;SDS011;9205;52.032;4.314;2023-08-06T06:47:19;8.13;;;1.90;;
18159;SDS011;9205;52.032;4.314;2023-08-06T06:49:46;2.73;;;1.60;;
18159;SDS011;9205;52.032;4.314;2023-08-06T06:52:13;4.33;;;1.87;;
18159;SDS011;9205;52.032;4.314;2023-08-06T06:54:41;2.70;;;1.50;;
18159;SDS011;9205;52.032;4.314;2023-08-06T06:57:08;3.83;;;1.70;;
18159;SDS011;9205;52.032;4.314;2023-08-06T06:59:35;3.50;;;1.40;;
18159;SDS011;9205;52.032;4.314;2023-08-06T07:02:05;2.97;;;2.00;;
18159;SDS011;9205;52.032;4.314;2023-08-06T07:04:32;4.90;;;1.77;;
18159;SDS011;9205;52.032;4.314;2023-08-06T07:06:59;6.03;;;1.80;;
18159;SDS011;9205;52.032;4.314;2023-08-06T07:09:26;4.93;;;1.70;;
18159;SDS011;9205;52.032;4.314;2023-08-06T07:11:54;2.60;;;1.63;;
18159;SDS011;9205;52.032;4.314;2023-08-06T07:14:21;4.03;;;1.80;;
18159;SDS011;9205;52.032;4.314;2023-08-06T07:16:49;2.23;;;1.50;;
18159;SDS011;9205;52.032;4.314;2023-08-06T07:19:17;2.43;;;1.53;;
18159;SDS011;9205;52.032;4.314;2023-08-06T07:21:45;3.33;;;1.60;;
18159;SDS011;9205;52.032;4.314;2023-08-06T07:24:12;4.13;;;1.70;;
18159;SDS011;9205;52.032;4.314;2023-08-06T07:26:39;5.87;;;1.83;;
18159;SDS011;9205;52.032;4.314;2023-08-06T07:29:06;4.63;;;1.77;;
18159;SDS011;9205;52.032;4.314;2023-08-06T07:31:33;8.50;;;1.63;;
18159;SDS011;9205;52.032;4.314;2023-08-06T07:34:01;4.40;;;1.60;;
18159;SDS011;9205;52.032;4.314;2023-08-06T07:36:30;3.97;;;1.73;;
18159;SDS011;9205;52.032;4.314;2023-08-06T07:38:57;7.37;;;2.10;;
18159;SDS011;9205;52.032;4.314;2023-08-06T07:41:24;5.50;;;1.73;;
18159;SDS011;9205;52.032;4.314;2023-08-06T07:43:51;10.07;;;1.87;;
18159;SDS011;9205;52.032;4.314;2023-08-06T07:46:19;4.33;;;2.20;;
18159;SDS011;9205;52.032;4.314;2023-08-06T07:48:46;2.40;;;1.57;;
18159;SDS011;9205;52.032;4.314;2023-08-06T07:51:13;5.83;;;2.00;;
18159;SDS011;9205;52.032;4.314;2023-08-06T07:53:42;5.93;;;2.00;;
18159;SDS011;9205;52.032;4.314;2023-08-06T07:56:09;4.83;;;1.67;;
18159;SDS011;9205;52.032;4.314;2023-08-06T07:58:36;2.93;;;1.60;;
18159;SDS011;9205;52.032;4.314;2023-08-06T08:01:03;4.13;;;1.53;;
18159;SDS011;9205;52.032;4.314;2023-08-06T08:03:32;2.10;;;1.40;;
18159;SDS011;9205;52.032;4.314;2023-08-06T08:05:59;4.63;;;1.60;;
18159;SDS011;9205;52.032;4.314;2023-08-06T08:08:26;3.10;;;1.50;;
18159;SDS011;9205;52.032;4.314;2023-08-06T08:10:55;4.03;;;1.40;;
18159;SDS011;9205;52.032;4.314;2023-08-06T08:13:24;3.10;;;1.67;;
18159;SDS011;9205;52.032;4.314;2023-08-06T08:15:55;2.63;;;1.50;;
18159;SDS011;9205;52.032;4.314;2023-08-06T08:18:27;4.70;;;1.90;;
18159;SDS011;9205;52.032;4.314;2023-08-06T08:20:56;4.90;;;1.70;;
18159;SDS011;9205;52.032;4.314;2023-08-06T08:23:23;5.07;;;1.70;;
18159;SDS011;9205;52.032;4.314;2023-08-06T08:25:51;2.87;;;1.73;;
18159;SDS011;9205;52.032;4.314;2023-08-06T08:28:19;4.27;;;1.50;;
18159;SDS011;9205;52.032;4.314;2023-08-06T08:30:47;3.50;;;1.90;;
18159;SDS011;9205;52.032;4.314;2023-08-06T08:33:15;4.23;;;1.60;;
18159;SDS011;9205;52.032;4.314;2023-08-06T08:35:42;3.87;;;1.50;;
18159;SDS011;9205;52.032;4.314;2023-08-06T08:38:09;2.80;;;1.60;;
18159;SDS011;9205;52.032;4.314;2023-08-06T08:40:37;5.47;;;1.57;;
18159;SDS011;9205;52.032;4.314;2023-08-06T08:43:12;3.13;;;1.57;;
18159;SDS011;9205;52.032;4.314;2023-08-06T08:45:42;3.20;;;1.60;;
18159;SDS011;9205;52.032;4.314;2023-08-06T08:48:16;3.40;;;1.80;;
18159;SDS011;9205;52.032;4.314;2023-08-06T08:50:45;2.50;;;1.27;;
18159;SDS011;9205;52.032;4.314;2023-08-06T08:53:15;3.20;;;1.47;;
18159;SDS011;9205;52.032;4.314;2023-08-06T08:55:43;2.80;;;1.40;;
18159;SDS011;9205;52.032;4.314;2023-08-06T08:58:13;2.60;;;1.47;;
18159;SDS011;9205;52.032;4.314;2023-08-06T09:00:42;2.83;;;1.20;;
18159;SDS011;9205;52.032;4.314;2023-08-06T09:03:12;3.90;;;1.30;;
18159;SDS011;9205;52.032;4.314;2023-08-06T09:05:41;2.07;;;1.23;;
18159;SDS011;9205;52.032;4.314;2023-08-06T09:08:11;5.50;;;1.30;;
18159;SDS011;9205;52.032;4.314;2023-08-06T09:10:44;3.53;;;1.20;;
18159;SDS011;9205;52.032;4.314;2023-08-06T09:13:15;2.43;;;1.40;;
18159;SDS011;9205;52.032;4.314;2023-08-06T09:15:44;1.67;;;1.27;;
18159;SDS011;9205;52.032;4.314;2023-08-06T09:18:11;1.70;;;1.20;;
18159;SDS011;9205;52.032;4.314;2023-08-06T09:20:39;2.53;;;1.30;;
18159;SDS011;9205;52.032;4.314;2023-08-06T09:23:07;1.47;;;1.13;;
18159;SDS011;9205;52.032;4.314;2023-08-06T09:25:36;2.10;;;1.20;;
18159;SDS011;9205;52.032;4.314;2023-08-06T09:28:06;2.10;;;1.27;;
18159;SDS011;9205;52.032;4.314;2023-08-06T09:30:34;3.50;;;1.60;;
18159;SDS011;9205;52.032;4.314;2023-08-06T09:33:04;2.63;;;1.23;;
18159;SDS011;9205;52.032;4.314;2023-08-06T09:35:37;2.27;;;1.27;;
18159;SDS011;9205;52.032;4.314;2023-08-06T09:38:07;2.57;;;1.23;;
18159;SDS011;9205;52.032;4.314;2023-08-06T09:40:37;3.60;;;1.20;;
18159;SDS011;9205;52.032;4.314;2023-08-06T09:43:05;2.70;;;1.33;;
18159;SDS011;9205;52.032;4.314;2023-08-06T09:45:34;1.77;;;1.10;;
18159;SDS011;9205;52.032;4.314;2023-08-06T09:48:04;2.87;;;1.20;;
18159;SDS011;9205;52.032;4.314;2023-08-06T09:50:34;3.17;;;1.50;;
18159;SDS011;9205;52.032;4.314;2023-08-06T09:53:04;3.63;;;1.30;;
18159;SDS011;9205;52.032;4.314;2023-08-06T09:55:33;2.50;;;0.90;;
18159;SDS011;9205;52.032;4.314;2023-08-06T09:58:00;2.53;;;1.20;;
18159;SDS011;9205;52.032;4.314;2023-08-06T10:00:28;2.53;;;1.30;;
18159;SDS011;9205;52.032;4.314;2023-08-06T10:02:59;2.23;;;1.07;;
18159;SDS011;9205;52.032;4.314;2023-08-06T10:05:28;1.70;;;0.93;;
18159;SDS011;9205;52.032;4.314;2023-08-06T10:07:58;2.63;;;1.00;;
18159;SDS011;9205;52.032;4.314;2023-08-06T10:10:29;1.70;;;1.23;;
18159;SDS011;9205;52.032;4.314;2023-08-06T10:12:57;1.33;;;1.00;;
18159;SDS011;9205;52.032;4.314;2023-08-06T10:15:27;2.77;;;1.27;;
18159;SDS011;9205;52.032;4.314;2023-08-06T10:17:58;3.70;;;1.17;;
18159;SDS011;9205;52.032;4.314;2023-08-06T10:20:33;1.70;;;1.10;;
18159;SDS011;9205;52.032;4.314;2023-08-06T10:23:02;1.20;;;1.10;;
18159;SDS011;9205;52.032;4.314;2023-08-06T10:25:31;3.00;;;1.20;;
18159;SDS011;9205;52.032;4.314;2023-08-06T10:27:59;1.73;;;1.10;;
18159;SDS011;9205;52.032;4.314;2023-08-06T10:30:33;1.57;;;1.00;;
18159;SDS011;9205;52.032;4.314;2023-08-06T10:33:07;2.33;;;1.20;;
18159;SDS011;9205;52.032;4.314;2023-08-06T10:35:36;2.60;;;1.27;;
18159;SDS011;9205;52.032;4.314;2023-08-06T10:38:09;3.00;;;1.30;;
18159;SDS011;9205;52.032;4.314;2023-08-06T10:40:39;2.47;;;1.20;;
18159;SDS011;9205;52.032;4.314;2023-08-06T10:43:07;1.40;;;0.90;;
18159;SDS011;9205;52.032;4.314;2023-08-06T10:45:51;1.40;;;1.10;;
18159;SDS011;9205;52.032;4.314;2023-08-06T10:48:28;1.93;;;0.90;;
18159;SDS011;9205;52.032;4.314;2023-08-06T10:50:59;1.93;;;1.10;;
18159;SDS011;9205;52.032;4.314;2023-08-06T10:53:27;2.20;;;1.07;;
18159;SDS011;9205;52.032;4.314;2023-08-06T10:55:54;1.13;;;0.80;;
18159;SDS011;9205;52.032;4.314;2023-08-06T10:58:22;2.60;;;0.90;;
18159;SDS011;9205;52.032;4.314;2023-08-06T11:00:50;3.00;;;0.90;;
18159;SDS011;9205;52.032;4.314;2023-08-06T11:03:17;3.00;;;1.00;;
18159;SDS011;9205;52.032;4.314;2023-08-06T11:05:48;4.80;;;1.20;;
18159;SDS011;9205;52.032;4.314;2023-08-06T11:08:24;7.90;;;1.20;;
18159;SDS011;9205;52.032;4.314;2023-08-06T11:10:52;2.07;;;1.10;;
18159;SDS011;9205;52.032;4.314;2023-08-06T11:13:19;3.77;;;1.10;;
18159;SDS011;9205;52.032;4.314;2023-08-06T11:15:47;3.53;;;1.10;;
18159;SDS011;9205;52.032;4.314;2023-08-06T11:18:14;1.47;;;1.10;;
18159;SDS011;9205;52.032;4.314;2023-08-06T11:20:41;2.40;;;1.30;;
18159;SDS011;9205;52.032;4.314;2023-08-06T11:23:09;2.27;;;1.17;;
18159;SDS011;9205;52.032;4.314;2023-08-06T11:25:38;3.07;;;1.40;;
18159;SDS011;9205;52.032;4.314;2023-08-06T11:28:11;2.93;;;1.20;;
18159;SDS011;9205;52.032;4.314;2023-08-06T11:30:38;4.23;;;1.30;;
18159;SDS011;9205;52.032;4.314;2023-08-06T11:33:06;4.83;;;1.03;;
18159;SDS011;9205;52.032;4.314;2023-08-06T11:35:34;4.90;;;1.40;;
18159;SDS011;9205;52.032;4.314;2023-08-06T11:38:02;5.90;;;1.57;;
18159;SDS011;9205;52.032;4.314;2023-08-06T11:40:30;2.70;;;1.10;;
18159;SDS011;9205;52.032;4.314;2023-08-06T11:43:00;1.87;;;1.17;;
18159;SDS011;9205;52.032;4.314;2023-08-06T11:45:27;2.47;;;1.20;;
18159;SDS011;9205;52.032;4.314;2023-08-06T11:47:54;1.73;;;1.10;;
18159;SDS011;9205;52.032;4.314;2023-08-06T11:50:22;2.27;;;1.00;;
18159;SDS011;9205;52.032;4.314;2023-08-06T11:52:52;2.93;;;1.03;;
18159;SDS011;9205;52.032;4.314;2023-08-06T11:55:23;1.67;;;1.00;;
18159;SDS011;9205;52.032;4.314;2023-08-06T11:57:51;1.83;;;0.90;;
18159;SDS011;9205;52.032;4.314;2023-08-06T12:00:20;1.40;;;0.83;;
18159;SDS011;9205;52.032;4.314;2023-08-06T12:02:52;1.10;;;0.80;;
18159;SDS011;9205;52.032;4.314;2023-08-06T12:05:20;1.83;;;0.80;;
18159;SDS011;9205;52.032;4.314;2023-08-06T12:07:52;1.47;;;0.80;;
18159;SDS011;9205;52.032;4.314;2023-08-06T12:10:24;2.10;;;1.00;;
18159;SDS011;9205;52.032;4.314;2023-08-06T12:12:54;5.37;;;0.73;;
18159;SDS011;9205;52.032;4.314;2023-08-06T12:15:23;1.10;;;0.80;;
18159;SDS011;9205;52.032;4.314;2023-08-06T12:17:50;3.60;;;0.97;;
18159;SDS011;9205;52.032;4.314;2023-08-06T12:20:20;1.17;;;0.90;;
18159;SDS011;9205;52.032;4.314;2023-08-06T12:22:58;2.60;;;0.80;;
18159;SDS011;9205;52.032;4.314;2023-08-06T12:25:25;1.90;;;0.60;;
18159;SDS011;9205;52.032;4.314;2023-08-06T12:27:52;2.13;;;0.80;;
18159;SDS011;9205;52.032;4.314;2023-08-06T12:30:19;1.80;;;0.93;;
18159;SDS011;9205;52.032;4.314;2023-08-06T12:32:47;1.20;;;0.70;;
18159;SDS011;9205;52.032;4.314;2023-08-06T12:35:16;1.00;;;0.60;;
18159;SDS011;9205;52.032;4.314;2023-08-06T12:37:45;1.23;;;0.70;;
18159;SDS011;9205;52.032;4.314;2023-08-06T12:40:12;1.10;;;0.70;;
18159;SDS011;9205;52.032;4.314;2023-08-06T12:42:39;2.83;;;0.93;;
18159;SDS011;9205;52.032;4.314;2023-08-06T12:45:07;1.20;;;0.70;;
18159;SDS011;9205;52.032;4.314;2023-08-06T12:47:35;2.03;;;0.70;;
18159;SDS011;9205;52.032;4.314;2023-08-06T12:50:04;0.60;;;0.60;;
18159;SDS011;9205;52.032;4.314;2023-08-06T12:52:32;1.33;;;0.70;;
18159;SDS011;9205;52.032;4.314;2023-08-06T12:55:00;1.07;;;0.60;;
18159;SDS011;9205;52.032;4.314;2023-08-06T12:57:27;1.20;;;0.60;;
18159;SDS011;9205;52.032;4.314;2023-08-06T12:59:54;1.13;;;0.60;;
18159;SDS011;9205;52.032;4.314;2023-08-06T13:02:22;1.73;;;0.70;;
18159;SDS011;9205;52.032;4.314;2023-08-06T13:04:49;0.93;;;0.80;;
18159;SDS011;9205;52.032;4.314;2023-08-06T13:07:17;3.67;;;0.90;;
18159;SDS011;9205;52.032;4.314;2023-08-06T13:09:45;11.50;;;1.20;;
18159;SDS011;9205;52.032;4.314;2023-08-06T13:12:12;4.93;;;1.00;;
18159;SDS011;9205;52.032;4.314;2023-08-06T13:14:39;7.50;;;1.50;;
18159;SDS011;9205;52.032;4.314;2023-08-06T13:17:07;7.50;;;1.07;;
18159;SDS011;9205;52.032;4.314;2023-08-06T13:19:35;4.50;;;1.17;;
18159;SDS011;9205;52.032;4.314;2023-08-06T13:22:02;4.83;;;0.90;;
18159;SDS011;9205;52.032;4.314;2023-08-06T13:24:33;4.83;;;0.90;;
18159;SDS011;9205;52.032;4.314;2023-08-06T13:27:01;7.37;;;1.37;;
18159;SDS011;9205;52.032;4.314;2023-08-06T13:29:28;9.37;;;1.43;;
18159;SDS011;9205;52.032;4.314;2023-08-06T13:31:55;2.93;;;1.13;;
18159;SDS011;9205;52.032;4.314;2023-08-06T13:34:23;4.20;;;1.00;;
18159;SDS011;9205;52.032;4.314;2023-08-06T13:36:50;6.33;;;1.47;;
18159;SDS011;9205;52.032;4.314;2023-08-06T13:39:18;5.30;;;1.57;;
18159;SDS011;9205;52.032;4.314;2023-08-06T13:41:46;4.90;;;1.23;;
18159;SDS011;9205;52.032;4.314;2023-08-06T13:44:13;2.57;;;0.93;;
18159;SDS011;9205;52.032;4.314;2023-08-06T13:46:42;4.47;;;0.90;;
18159;SDS011;9205;52.032;4.314;2023-08-06T13:49:09;3.63;;;0.80;;
18159;SDS011;9205;52.032;4.314;2023-08-06T13:51:36;5.17;;;1.00;;
18159;SDS011;9205;52.032;4.314;2023-08-06T13:54:04;4.23;;;1.00;;
18159;SDS011;9205;52.032;4.314;2023-08-06T13:56:32;6.33;;;1.00;;
18159;SDS011;9205;52.032;4.314;2023-08-06T13:59:01;5.03;;;1.00;;
18159;SDS011;9205;52.032;4.314;2023-08-06T14:01:29;4.87;;;0.93;;
18159;SDS011;9205;52.032;4.314;2023-08-06T14:03:56;3.17;;;1.00;;
18159;SDS011;9205;52.032;4.314;2023-08-06T14:06:23;8.83;;;1.40;;
18159;SDS011;9205;52.032;4.314;2023-08-06T14:08:50;4.30;;;1.00;;
18159;SDS011;9205;52.032;4.314;2023-08-06T14:11:18;3.13;;;1.00;;
18159;SDS011;9205;52.032;4.314;2023-08-06T14:13:45;1.97;;;0.97;;
18159;SDS011;9205;52.032;4.314;2023-08-06T14:16:14;6.90;;;1.00;;
18159;SDS011;9205;52.032;4.314;2023-08-06T14:18:41;5.63;;;1.10;;
18159;SDS011;9205;52.032;4.314;2023-08-06T14:21:08;7.67;;;1.43;;
18159;SDS011;9205;52.032;4.314;2023-08-06T14:23:36;5.13;;;1.20;;
18159;SDS011;9205;52.032;4.314;2023-08-06T14:26:03;12.00;;;1.93;;
18159;SDS011;9205;52.032;4.314;2023-08-06T14:28:30;5.63;;;1.40;;
18159;SDS011;9205;52.032;4.314;2023-08-06T14:30:58;3.13;;;1.00;;
18159;SDS011;9205;52.032;4.314;2023-08-06T14:33:27;5.80;;;1.63;;
18159;SDS011;9205;52.032;4.314;2023-08-06T14:35:54;3.30;;;1.10;;
18159;SDS011;9205;52.032;4.314;2023-08-06T14:38:21;5.37;;;1.07;;
18159;SDS011;9205;52.032;4.314;2023-08-06T14:40:49;8.73;;;1.20;;
18159;SDS011;9205;52.032;4.314;2023-08-06T14:43:16;3.37;;;1.03;;
18159;SDS011;9205;52.032;4.314;2023-08-06T14:45:44;4.37;;;1.10;;
18159;SDS011;9205;52.032;4.314;2023-08-06T14:48:12;3.13;;;1.00;;
18159;SDS011;9205;52.032;4.314;2023-08-06T14:50:41;2.40;;;1.10;;
18159;SDS011;9205;52.032;4.314;2023-08-06T14:53:08;2.47;;;0.70;;
18159;SDS011;9205;52.032;4.314;2023-08-06T14:55:37;3.67;;;0.83;;
18159;SDS011;9205;52.032;4.314;2023-08-06T14:58:04;3.80;;;0.93;;
18159;SDS011;9205;52.032;4.314;2023-08-06T15:00:31;3.13;;;1.07;;
18159;SDS011;9205;52.032;4.314;2023-08-06T15:02:58;5.87;;;1.13;;
18159;SDS011;9205;52.032;4.314;2023-08-06T15:05:26;4.23;;;1.00;;
18159;SDS011;9205;52.032;4.314;2023-08-06T15:07:54;9.87;;;1.10;;